sensor_id;sensor_type;location;lat;lon;timestamp;pressure;altitude;pressure_sealevel;temperature;humidity
72423;BME280;71399;54.146;38.734;2023-12-14T00:01:37;99913.38;;;-11.71;100.00
72423;BME280;71399;54.146;38.734;2023-12-14T00:04:05;99913.69;;;-11.77;100.00
72423;BME280;71399;54.146;38.734;2023-12-14T00:06:32;99912.72;;;-11.75;100.00
72423;BME280;71399;54.146;38.734;2023-12-14T00:08:58;99912.84;;;-11.78;100.00
72423;BME280;71399;54.146;38.734;2023-12-14T00:11:25;99909.13;;;-11.88;100.00
72423;BME280;71399;54.146;38.734;2023-12-14T00:13:51;99914.72;;;-11.81;100.00
72423;BME280;71399;54.146;38.734;2023-12-14T00:16:17;99909.28;;;-11.74;100.00
72423;BME280;71399;54.146;38.734;2023-12-14T00:18:43;99910.16;;;-11.75;100.00
72423;BME280;71399;54.146;38.734;2023-12-14T00:21:10;99909.94;;;-11.70;100.00
72423;BME280;71399;54.146;38.734;2023-12-14T00:23:36;99904.84;;;-11.70;100.00
72423;BME280;71399;54.146;38.734;2023-12-14T00:26:02;99907.47;;;-11.71;100.00
72423;BME280;71399;54.146;38.734;2023-12-14T00:28:29;99895.34;;;-11.66;100.00
72423;BME280;71399;54.146;38.734;2023-12-14T00:30:55;99898.81;;;-11.67;100.00
72423;BME280;71399;54.146;38.734;2023-12-14T00:33:21;99907.03;;;-11.62;100.00
72423;BME280;71399;54.146;38.734;2023-12-14T00:35:48;99902.97;;;-11.66;100.00
72423;BME280;71399;54.146;38.734;2023-12-14T00:38:14;99902.31;;;-11.70;100.00
72423;BME280;71399;54.146;38.734;2023-12-14T00:40:41;99903.97;;;-11.69;100.00
72423;BME280;71399;54.146;38.734;2023-12-14T00:43:07;99903.13;;;-11.69;100.00
72423;BME280;71399;54.146;38.734;2023-12-14T00:45:33;99895.69;;;-11.72;100.00
72423;BME280;71399;54.146;38.734;2023-12-14T00:48:00;99905.28;;;-11.62;100.00
72423;BME280;71399;54.146;38.734;2023-12-14T00:50:27;99891.91;;;-11.65;100.00
72423;BME280;71399;54.146;38.734;2023-12-14T00:52:54;99891.91;;;-11.65;100.00
72423;BME280;71399;54.146;38.734;2023-12-14T00:55:25;99872.03;;;-11.75;100.00
72423;BME280;71399;54.146;38.734;2023-12-14T00:57:51;99885.19;;;-11.66;100.00
72423;BME280;71399;54.146;38.734;2023-12-14T01:00:18;99877.31;;;-11.62;100.00
72423;BME280;71399;54.146;38.734;2023-12-14T01:02:45;99885.75;;;-11.61;100.00
72423;BME280;71399;54.146;38.734;2023-12-14T01:05:11;99884.22;;;-11.64;100.00
72423;BME280;71399;54.146;38.734;2023-12-14T01:07:37;99865.97;;;-11.72;100.00
72423;BME280;71399;54.146;38.734;2023-12-14T01:10:04;99889.06;;;-11.59;100.00
72423;BME280;71399;54.146;38.734;2023-12-14T01:12:31;99872.47;;;-11.66;100.00
72423;BME280;71399;54.146;38.734;2023-12-14T01:14:58;99888.16;;;-11.58;100.00
72423;BME280;71399;54.146;38.734;2023-12-14T01:17:24;99880.75;;;-11.63;100.00
72423;BME280;71399;54.146;38.734;2023-12-14T01:19:51;99889.97;;;-11.60;100.00
72423;BME280;71399;54.146;38.734;2023-12-14T01:22:17;99903.94;;;-11.51;100.00
72423;BME280;71399;54.146;38.734;2023-12-14T01:24:44;99893.81;;;-11.53;100.00
72423;BME280;71399;54.146;38.734;2023-12-14T01:27:10;99899.13;;;-11.58;100.00
72423;BME280;71399;54.146;38.734;2023-12-14T01:29:39;99893.16;;;-11.57;100.00
72423;BME280;71399;54.146;38.734;2023-12-14T01:32:06;99887.13;;;-11.54;100.00
72423;BME280;71399;54.146;38.734;2023-12-14T01:34:33;99887.34;;;-11.59;100.00
72423;BME280;71399;54.146;38.734;2023-12-14T01:36:59;99882.56;;;-11.65;100.00
72423;BME280;71399;54.146;38.734;2023-12-14T01:39:25;99875.16;;;-11.69;100.00
72423;BME280;71399;54.146;38.734;2023-12-14T01:41:52;99883.56;;;-11.67;100.00
72423;BME280;71399;54.146;38.734;2023-12-14T01:44:18;99900.88;;;-11.58;100.00
72423;BME280;71399;54.146;38.734;2023-12-14T01:46:44;99895.19;;;-11.63;100.00
72423;BME280;71399;54.146;38.734;2023-12-14T01:49:10;99899.78;;;-11.70;100.00
72423;BME280;71399;54.146;38.734;2023-12-14T01:51:37;99909.94;;;-11.70;100.00
72423;BME280;71399;54.146;38.734;2023-12-14T01:54:03;99917.66;;;-11.71;100.00
72423;BME280;71399;54.146;38.734;2023-12-14T01:56:29;99902.78;;;-11.79;100.00
72423;BME280;71399;54.146;38.734;2023-12-14T01:58:56;99903.47;;;-11.76;100.00
72423;BME280;71399;54.146;38.734;2023-12-14T02:01:38;99894.03;;;-11.74;100.00
72423;BME280;71399;54.146;38.734;2023-12-14T02:04:05;99894.03;;;-11.74;100.00
72423;BME280;71399;54.146;38.734;2023-12-14T02:06:34;99904.72;;;-11.67;100.00
72423;BME280;71399;54.146;38.734;2023-12-14T02:09:01;99902.97;;;-11.66;100.00
72423;BME280;71399;54.146;38.734;2023-12-14T02:11:27;99904.78;;;-11.68;100.00
72423;BME280;71399;54.146;38.734;2023-12-14T02:13:54;99899.84;;;-11.71;100.00
72423;BME280;71399;54.146;38.734;2023-12-14T02:16:20;99891.69;;;-11.78;100.00
72423;BME280;71399;54.146;38.734;2023-12-14T02:18:47;99902.38;;;-11.71;100.00
72423;BME280;71399;54.146;38.734;2023-12-14T02:21:33;99904.19;;;-11.74;100.00
72423;BME280;71399;54.146;38.734;2023-12-14T02:24:00;99891.41;;;-11.72;100.00
72423;BME280;71399;54.146;38.734;2023-12-14T02:26:26;99897.31;;;-11.71;100.00
72423;BME280;71399;54.146;38.734;2023-12-14T02:28:52;99888.63;;;-11.67;100.00
72423;BME280;71399;54.146;38.734;2023-12-14T02:31:19;99869.19;;;-11.68;100.00
72423;BME280;71399;54.146;38.734;2023-12-14T02:33:46;99883.38;;;-11.64;100.00
72423;BME280;71399;54.146;38.734;2023-12-14T02:36:12;99902.97;;;-11.66;100.00
72423;BME280;71399;54.146;38.734;2023-12-14T02:38:39;99889.09;;;-11.77;100.00
72423;BME280;71399;54.146;38.734;2023-12-14T02:41:05;99874.19;;;-11.84;100.00
72423;BME280;71399;54.146;38.734;2023-12-14T02:43:31;99890.66;;;-11.74;100.00
72423;BME280;71399;54.146;38.734;2023-12-14T02:45:59;99887.34;;;-11.76;100.00
72423;BME280;71399;54.146;38.734;2023-12-14T02:48:29;99878.09;;;-11.77;100.00
72423;BME280;71399;54.146;38.734;2023-12-14T02:50:55;99887.13;;;-11.71;100.00
72423;BME280;71399;54.146;38.734;2023-12-14T02:53:22;99878.47;;;-11.67;100.00
72423;BME280;71399;54.146;38.734;2023-12-14T02:55:48;99864.41;;;-11.75;100.00
72423;BME280;71399;54.146;38.734;2023-12-14T02:58:15;99882.56;;;-11.65;100.00
72423;BME280;71399;54.146;38.734;2023-12-14T03:00:41;99886.69;;;-11.62;100.00
72423;BME280;71399;54.146;38.734;2023-12-14T03:03:07;99872.16;;;-11.60;100.00
72423;BME280;71399;54.146;38.734;2023-12-14T03:05:33;99881.75;;;-11.65;100.00
72423;BME280;71399;54.146;38.734;2023-12-14T03:08:00;99888.47;;;-11.64;100.00
72423;BME280;71399;54.146;38.734;2023-12-14T03:10:26;99887.78;;;-11.68;100.00
72423;BME280;71399;54.146;38.734;2023-12-14T03:12:52;99895.50;;;-11.69;100.00
72423;BME280;71399;54.146;38.734;2023-12-14T03:15:19;99895.91;;;-11.77;100.00
72423;BME280;71399;54.146;38.734;2023-12-14T03:17:45;99898.28;;;-11.74;100.00
72423;BME280;71399;54.146;38.734;2023-12-14T03:20:12;99899.84;;;-11.71;100.00
72423;BME280;71399;54.146;38.734;2023-12-14T03:22:40;99905.84;;;-11.72;100.00
72423;BME280;71399;54.146;38.734;2023-12-14T03:25:08;99903.97;;;-11.69;100.00
72423;BME280;71399;54.146;38.734;2023-12-14T03:27:36;99883.56;;;-11.67;100.00
72423;BME280;71399;54.146;38.734;2023-12-14T03:30:03;99881.75;;;-11.65;100.00
72423;BME280;71399;54.146;38.734;2023-12-14T03:32:34;99891.91;;;-11.65;100.00
72423;BME280;71399;54.146;38.734;2023-12-14T03:35:01;99884.38;;;-11.67;100.00
72423;BME280;71399;54.146;38.734;2023-12-14T03:37:30;99885.19;;;-11.66;100.00
72423;BME280;71399;54.146;38.734;2023-12-14T03:39:56;99879.28;;;-11.67;100.00
72423;BME280;71399;54.146;38.734;2023-12-14T03:42:22;99873.88;;;-11.61;100.00
72423;BME280;71399;54.146;38.734;2023-12-14T03:44:49;99877.09;;;-11.57;100.00
72423;BME280;71399;54.146;38.734;2023-12-14T03:47:15;99863.94;;;-11.65;100.00
72423;BME280;71399;54.146;38.734;2023-12-14T03:49:41;99844.81;;;-11.72;100.00
72423;BME280;71399;54.146;38.734;2023-12-14T03:52:08;99849.91;;;-11.72;100.00
72423;BME280;71399;54.146;38.734;2023-12-14T03:54:35;99852.34;;;-11.71;100.00
72423;BME280;71399;54.146;38.734;2023-12-14T03:57:02;99858.28;;;-11.70;100.00
72423;BME280;71399;54.146;38.734;2023-12-14T03:59:28;99843.31;;;-11.77;100.00
72423;BME280;71399;54.146;38.734;2023-12-14T04:01:54;99857.28;;;-11.68;100.00
72423;BME280;71399;54.146;38.734;2023-12-14T04:04:21;99854.81;;;-11.69;100.00
72423;BME280;71399;54.146;38.734;2023-12-14T04:06:47;99860.88;;;-11.72;100.00
72423;BME280;71399;54.146;38.734;2023-12-14T04:09:13;99855.28;;;-11.79;100.00
72423;BME280;71399;54.146;38.734;2023-12-14T04:11:39;99845.28;;;-11.82;100.00
72423;BME280;71399;54.146;38.734;2023-12-14T04:14:07;99856.84;;;-11.76;100.00
72423;BME280;71399;54.146;38.734;2023-12-14T04:16:33;99851.84;;;-11.78;100.00
72423;BME280;71399;54.146;38.734;2023-12-14T04:18:59;99856.47;;;-11.68;100.00
72423;BME280;71399;54.146;38.734;2023-12-14T04:21:26;99856.47;;;-11.68;100.00
72423;BME280;71399;54.146;38.734;2023-12-14T04:23:53;99851.53;;;-11.71;100.00
72423;BME280;71399;54.146;38.734;2023-12-14T04:26:19;99846.59;;;-11.75;100.00
72423;BME280;71399;54.146;38.734;2023-12-14T04:28:45;99842.19;;;-11.71;100.00
72423;BME280;71399;54.146;38.734;2023-12-14T04:31:12;99847.09;;;-11.68;100.00
72423;BME280;71399;54.146;38.734;2023-12-14T04:33:38;99858.13;;;-11.67;100.00
72423;BME280;71399;54.146;38.734;2023-12-14T04:36:05;99844.06;;;-11.75;100.00
72423;BME280;71399;54.146;38.734;2023-12-14T04:38:31;99845.56;;;-11.70;100.00
72423;BME280;71399;54.146;38.734;2023-12-14T04:40:57;99846.38;;;-11.70;100.00
72423;BME280;71399;54.146;38.734;2023-12-14T04:43:24;99855.97;;;-11.75;100.00
72423;BME280;71399;54.146;38.734;2023-12-14T04:45:50;99852.59;;;-11.76;100.00
72423;BME280;71399;54.146;38.734;2023-12-14T04:48:16;99844.72;;;-11.71;100.00
72423;BME280;71399;54.146;38.734;2023-12-14T04:50:42;99862.44;;;-11.69;100.00
72423;BME280;71399;54.146;38.734;2023-12-14T04:53:09;99861.84;;;-11.75;100.00
72423;BME280;71399;54.146;38.734;2023-12-14T04:55:35;99854.22;;;-11.75;100.00
72423;BME280;71399;54.146;38.734;2023-12-14T04:58:01;99854.66;;;-11.66;100.00
72423;BME280;71399;54.146;38.734;2023-12-14T05:00:28;99859.59;;;-11.63;100.00
72423;BME280;71399;54.146;38.734;2023-12-14T05:02:54;99859.59;;;-11.63;100.00
72423;BME280;71399;54.146;38.734;2023-12-14T05:05:20;99857.13;;;-11.65;100.00
72423;BME280;71399;54.146;38.734;2023-12-14T05:07:47;99868.38;;;-11.69;100.00
72423;BME280;71399;54.146;38.734;2023-12-14T05:10:13;99865.47;;;-11.79;100.00
72423;BME280;71399;54.146;38.734;2023-12-14T05:12:39;99870.84;;;-11.67;100.00
72423;BME280;71399;54.146;38.734;2023-12-14T05:15:06;99881.75;;;-11.65;100.00
72423;BME280;71399;54.146;38.734;2023-12-14T05:17:33;99879.94;;;-11.63;100.00
72423;BME280;71399;54.146;38.734;2023-12-14T05:20:08;99887.50;;;-11.62;100.00
72423;BME280;71399;54.146;38.734;2023-12-14T05:22:34;99880.59;;;-11.60;100.00
72423;BME280;71399;54.146;38.734;2023-12-14T05:25:01;99878.91;;;-11.59;100.00
72423;BME280;71399;54.146;38.734;2023-12-14T05:27:29;99877.84;;;-11.55;100.00
72423;BME280;71399;54.146;38.734;2023-12-14T05:29:55;99886.84;;;-11.49;100.00
72423;BME280;71399;54.146;38.734;2023-12-14T05:32:22;99876.53;;;-11.46;100.00
72423;BME280;71399;54.146;38.734;2023-12-14T05:34:48;99862.19;;;-11.47;100.00
72423;BME280;71399;54.146;38.734;2023-12-14T05:37:14;99872.88;;;-11.41;100.00
72423;BME280;71399;54.146;38.734;2023-12-14T05:39:41;99866.84;;;-11.40;100.00
72423;BME280;71399;54.146;38.734;2023-12-14T05:42:09;99862.69;;;-11.41;100.00
72423;BME280;71399;54.146;38.734;2023-12-14T05:44:35;99861.84;;;-11.41;100.00
72423;BME280;71399;54.146;38.734;2023-12-14T05:47:02;99855.88;;;-11.40;100.00
72423;BME280;71399;54.146;38.734;2023-12-14T05:49:28;99850.78;;;-11.40;100.00
72423;BME280;71399;54.146;38.734;2023-12-14T05:51:54;99853.41;;;-11.42;100.00
72423;BME280;71399;54.146;38.734;2023-12-14T05:54:20;99837.31;;;-11.42;100.00
72423;BME280;71399;54.146;38.734;2023-12-14T05:56:47;99830.97;;;-11.51;100.00
72423;BME280;71399;54.146;38.734;2023-12-14T05:59:13;99845.78;;;-11.42;100.00
72423;BME280;71399;54.146;38.734;2023-12-14T06:01:39;99844.81;;;-11.39;100.00
72423;BME280;71399;54.146;38.734;2023-12-14T06:04:06;99844.53;;;-11.34;100.00
72423;BME280;71399;54.146;38.734;2023-12-14T06:06:32;99849.41;;;-11.30;100.00
72423;BME280;71399;54.146;38.734;2023-12-14T06:08:58;99827.50;;;-11.32;100.00
72423;BME280;71399;54.146;38.734;2023-12-14T06:11:25;99843.34;;;-11.27;100.00
72423;BME280;71399;54.146;38.734;2023-12-14T06:13:51;99852.19;;;-11.19;100.00
72423;BME280;71399;54.146;38.734;2023-12-14T06:16:19;99858.03;;;-11.16;100.00
72423;BME280;71399;54.146;38.734;2023-12-14T06:18:45;99842.75;;;-11.16;100.00
72423;BME280;71399;54.146;38.734;2023-12-14T06:21:11;99857.63;;;-11.09;100.00
72423;BME280;71399;54.146;38.734;2023-12-14T06:23:38;99853.34;;;-11.08;100.00
72423;BME280;71399;54.146;38.734;2023-12-14T06:26:05;99853.84;;;-11.02;100.00
72423;BME280;71399;54.146;38.734;2023-12-14T06:28:31;99871.06;;;-10.91;100.00
72423;BME280;71399;54.146;38.734;2023-12-14T06:30:58;99869.38;;;-10.90;100.00
72423;BME280;71399;54.146;38.734;2023-12-14T06:33:24;99882.66;;;-10.85;100.00
72423;BME280;71399;54.146;38.734;2023-12-14T06:35:50;99856.47;;;-10.87;100.00
72423;BME280;71399;54.146;38.734;2023-12-14T06:38:17;99871.31;;;-10.79;100.00
72423;BME280;71399;54.146;38.734;2023-12-14T06:40:43;99866.72;;;-10.73;100.00
72423;BME280;71399;54.146;38.734;2023-12-14T06:43:09;99855.22;;;-10.80;100.00
72423;BME280;71399;54.146;38.734;2023-12-14T06:45:38;99861.78;;;-10.60;100.00
72423;BME280;71399;54.146;38.734;2023-12-14T06:48:05;99869.81;;;-10.68;100.00
72423;BME280;71399;54.146;38.734;2023-12-14T06:50:31;99877.63;;;-10.55;100.00
72423;BME280;71399;54.146;38.734;2023-12-14T06:52:58;99874.84;;;-10.50;100.00
72423;BME280;71399;54.146;38.734;2023-12-14T06:55:24;99873.81;;;-10.48;100.00
72423;BME280;71399;54.146;38.734;2023-12-14T06:57:50;99886.72;;;-10.35;100.00
72423;BME280;71399;54.146;38.734;2023-12-14T07:00:17;99882.78;;;-10.26;100.00
72423;BME280;71399;54.146;38.734;2023-12-14T07:02:44;99886.63;;;-10.19;100.00
72423;BME280;71399;54.146;38.734;2023-12-14T07:05:10;99892.66;;;-10.20;100.00
72423;BME280;71399;54.146;38.734;2023-12-14T07:07:36;99892.66;;;-10.20;100.00
72423;BME280;71399;54.146;38.734;2023-12-14T07:10:03;99888.25;;;-10.32;100.00
72423;BME280;71399;54.146;38.734;2023-12-14T07:12:31;99900.19;;;-10.33;100.00
72423;BME280;71399;54.146;38.734;2023-12-14T07:14:58;99885.22;;;-10.39;100.00
72423;BME280;71399;54.146;38.734;2023-12-14T07:17:24;99883.53;;;-10.38;100.00
72423;BME280;71399;54.146;38.734;2023-12-14T07:19:51;99894.59;;;-10.39;100.00
72423;BME280;71399;54.146;38.734;2023-12-14T07:22:18;99904.00;;;-10.40;100.00
72423;BME280;71399;54.146;38.734;2023-12-14T07:24:44;99893.78;;;-10.40;100.00
72423;BME280;71399;54.146;38.734;2023-12-14T07:27:11;99883.84;;;-10.45;100.00
72423;BME280;71399;54.146;38.734;2023-12-14T07:29:37;99893.22;;;-10.31;100.00
72423;BME280;71399;54.146;38.734;2023-12-14T07:32:03;99889.59;;;-10.41;100.00
72423;BME280;71399;54.146;38.734;2023-12-14T07:34:30;99881.22;;;-10.43;100.00
72423;BME280;71399;54.146;38.734;2023-12-14T07:36:56;99869.13;;;-10.39;100.00
72423;BME280;71399;54.146;38.734;2023-12-14T07:39:23;99878.69;;;-10.29;100.00
72423;BME280;71399;54.146;38.734;2023-12-14T07:41:50;99872.81;;;-10.15;100.00
72423;BME280;71399;54.146;38.734;2023-12-14T07:44:16;99882.38;;;-10.04;100.00
72423;BME280;71399;54.146;38.734;2023-12-14T07:46:42;99869.03;;;-9.93;100.00
72423;BME280;71399;54.146;38.734;2023-12-14T07:49:09;99877.31;;;-9.90;100.00
72423;BME280;71399;54.146;38.734;2023-12-14T07:51:35;99869.41;;;-9.85;100.00
72423;BME280;71399;54.146;38.734;2023-12-14T07:54:01;99871.50;;;-9.77;100.00
72423;BME280;71399;54.146;38.734;2023-12-14T07:56:30;99873.44;;;-9.66;100.00
72423;BME280;71399;54.146;38.734;2023-12-14T07:58:58;99869.72;;;-9.46;100.00
72423;BME280;71399;54.146;38.734;2023-12-14T08:01:25;99864.41;;;-9.29;100.00
72423;BME280;71399;54.146;38.734;2023-12-14T08:03:51;99869.69;;;-9.18;100.00
72423;BME280;71399;54.146;38.734;2023-12-14T08:06:17;99881.06;;;-9.09;100.00
72423;BME280;71399;54.146;38.734;2023-12-14T08:08:43;99880.53;;;-9.14;100.00
72423;BME280;71399;54.146;38.734;2023-12-14T08:11:10;99881.19;;;-9.25;100.00
72423;BME280;71399;54.146;38.734;2023-12-14T08:13:36;99877.56;;;-9.35;100.00
72423;BME280;71399;54.146;38.734;2023-12-14T08:16:03;99876.72;;;-9.36;100.00
72423;BME280;71399;54.146;38.734;2023-12-14T08:18:29;99873.69;;;-9.42;100.00
72423;BME280;71399;54.146;38.734;2023-12-14T08:20:55;99884.09;;;-9.45;100.00
72423;BME280;71399;54.146;38.734;2023-12-14T08:23:22;99882.00;;;-9.53;100.00
72423;BME280;71399;54.146;38.734;2023-12-14T08:25:49;99881.72;;;-9.63;100.00
72423;BME280;71399;54.146;38.734;2023-12-14T08:28:15;99869.69;;;-9.75;100.00
72423;BME280;71399;54.146;38.734;2023-12-14T08:30:42;99886.38;;;-9.70;100.00
72423;BME280;71399;54.146;38.734;2023-12-14T08:33:08;99900.94;;;-9.72;100.00
72423;BME280;71399;54.146;38.734;2023-12-14T08:35:34;99895.94;;;-9.73;100.00
72423;BME280;71399;54.146;38.734;2023-12-14T08:38:01;99892.28;;;-9.69;100.00
72423;BME280;71399;54.146;38.734;2023-12-14T08:40:27;99881.28;;;-9.70;100.00
72423;BME280;71399;54.146;38.734;2023-12-14T08:42:54;99877.53;;;-9.64;100.00
72423;BME280;71399;54.146;38.734;2023-12-14T08:45:21;99876.38;;;-9.58;100.00
72423;BME280;71399;54.146;38.734;2023-12-14T08:47:47;99882.19;;;-9.56;100.00
72423;BME280;71399;54.146;38.734;2023-12-14T08:50:13;99874.34;;;-9.53;100.00
72423;BME280;71399;54.146;38.734;2023-12-14T08:52:40;99862.06;;;-9.46;100.00
72423;BME280;71399;54.146;38.734;2023-12-14T08:55:07;99856.84;;;-9.45;100.00
72423;BME280;71399;54.146;38.734;2023-12-14T08:57:35;99868.41;;;-9.39;100.00
72423;BME280;71399;54.146;38.734;2023-12-14T09:00:01;99845.44;;;-9.39;100.00
72423;BME280;71399;54.146;38.734;2023-12-14T09:02:31;99861.56;;;-9.24;100.00
72423;BME280;71399;54.146;38.734;2023-12-14T09:04:57;99860.28;;;-9.17;100.00
72423;BME280;71399;54.146;38.734;2023-12-14T09:07:24;99858.47;;;-9.15;100.00
72423;BME280;71399;54.146;38.734;2023-12-14T09:09:50;99852.34;;;-9.13;100.00
72423;BME280;71399;54.146;38.734;2023-12-14T09:12:16;99856.28;;;-9.07;100.00
72423;BME280;71399;54.146;38.734;2023-12-14T09:14:42;99846.16;;;-9.08;100.00
72423;BME280;71399;54.146;38.734;2023-12-14T09:17:09;99847.22;;;-8.98;100.00
72423;BME280;71399;54.146;38.734;2023-12-14T09:19:35;99850.66;;;-8.85;100.00
72423;BME280;71399;54.146;38.734;2023-12-14T09:22:01;99855.16;;;-8.76;100.00
72423;BME280;71399;54.146;38.734;2023-12-14T09:24:28;99835.03;;;-8.80;100.00
72423;BME280;71399;54.146;38.734;2023-12-14T09:26:54;99847.13;;;-8.69;100.00
72423;BME280;71399;54.146;38.734;2023-12-14T09:29:21;99819.41;;;-8.76;100.00
72423;BME280;71399;54.146;38.734;2023-12-14T09:31:47;99822.47;;;-8.70;100.00
72423;BME280;71399;54.146;38.734;2023-12-14T09:34:14;99824.03;;;-8.68;100.00
72423;BME280;71399;54.146;38.734;2023-12-14T09:36:40;99822.09;;;-8.64;100.00
72423;BME280;71399;54.146;38.734;2023-12-14T09:39:07;99820.44;;;-8.65;100.00
72423;BME280;71399;54.146;38.734;2023-12-14T09:41:37;99802.38;;;-8.62;100.00
72423;BME280;71399;54.146;38.734;2023-12-14T09:44:07;99795.13;;;-8.55;100.00
72423;BME280;71399;54.146;38.734;2023-12-14T09:46:37;99799.13;;;-8.51;100.00
72423;BME280;71399;54.146;38.734;2023-12-14T09:49:05;99805.34;;;-8.55;100.00
72423;BME280;71399;54.146;38.734;2023-12-14T09:51:31;99811.50;;;-8.58;100.00
72423;BME280;71399;54.146;38.734;2023-12-14T09:53:57;99802.97;;;-8.59;100.00
72423;BME280;71399;54.146;38.734;2023-12-14T09:56:25;99803.91;;;-8.60;100.00
72423;BME280;71399;54.146;38.734;2023-12-14T09:58:52;99813.91;;;-8.69;100.00
72423;BME280;71399;54.146;38.734;2023-12-14T10:03:48;99811.72;;;-8.88;100.00
72423;BME280;71399;54.146;38.734;2023-12-14T10:06:15;99822.03;;;-8.90;100.00
72423;BME280;71399;54.146;38.734;2023-12-14T10:08:41;99814.09;;;-9.00;100.00
72423;BME280;71399;54.146;38.734;2023-12-14T10:11:19;99822.75;;;-9.02;100.00
72423;BME280;71399;54.146;38.734;2023-12-14T10:13:45;99826.09;;;-8.87;100.00
72423;BME280;71399;54.146;38.734;2023-12-14T10:16:11;99819.06;;;-8.84;100.00
72423;BME280;71399;54.146;38.734;2023-12-14T10:18:38;99812.56;;;-8.75;100.00
72423;BME280;71399;54.146;38.734;2023-12-14T10:21:06;99808.09;;;-8.71;100.00
72423;BME280;71399;54.146;38.734;2023-12-14T10:23:33;99811.72;;;-8.76;100.00
72423;BME280;71399;54.146;38.734;2023-12-14T10:26:01;99807.84;;;-8.81;100.00
72423;BME280;71399;54.146;38.734;2023-12-14T10:28:27;99814.53;;;-8.93;100.00
72423;BME280;71399;54.146;38.734;2023-12-14T10:30:53;99811.72;;;-8.88;100.00
72423;BME280;71399;54.146;38.734;2023-12-14T10:33:20;99806.38;;;-8.85;100.00
72423;BME280;71399;54.146;38.734;2023-12-14T10:35:46;99798.94;;;-8.88;100.00
72423;BME280;71399;54.146;38.734;2023-12-14T10:38:14;99801.41;;;-8.87;100.00
72423;BME280;71399;54.146;38.734;2023-12-14T10:40:41;99796.38;;;-8.88;100.00
72423;BME280;71399;54.146;38.734;2023-12-14T10:43:10;99790.88;;;-8.82;100.00
72423;BME280;71399;54.146;38.734;2023-12-14T10:45:38;99793.72;;;-8.87;100.00
72423;BME280;71399;54.146;38.734;2023-12-14T10:48:06;99797.47;;;-8.92;100.00
72423;BME280;71399;54.146;38.734;2023-12-14T10:50:33;99777.91;;;-9.06;100.00
72423;BME280;71399;54.146;38.734;2023-12-14T10:53:03;99787.63;;;-8.99;100.00
72423;BME280;71399;54.146;38.734;2023-12-14T10:55:38;99782.53;;;-8.99;100.00
72423;BME280;71399;54.146;38.734;2023-12-14T10:58:04;99784.66;;;-9.05;100.00
72423;BME280;71399;54.146;38.734;2023-12-14T11:00:31;99786.09;;;-9.01;100.00
72423;BME280;71399;54.146;38.734;2023-12-14T11:02:59;99774.06;;;-8.99;100.00
72423;BME280;71399;54.146;38.734;2023-12-14T11:05:27;99768.41;;;-9.04;100.00
72423;BME280;71399;54.146;38.734;2023-12-14T11:08:05;99762.50;;;-9.05;100.00
72423;BME280;71399;54.146;38.734;2023-12-14T11:10:53;99754.13;;;-9.07;100.00
72423;BME280;71399;54.146;38.734;2023-12-14T11:13:23;99760.84;;;-9.06;100.00
72423;BME280;71399;54.146;38.734;2023-12-14T11:15:51;99748.78;;;-9.17;100.00
72423;BME280;71399;54.146;38.734;2023-12-14T11:18:19;99758.81;;;-9.14;100.00
72423;BME280;71399;54.146;38.734;2023-12-14T11:21:00;99753.88;;;-9.17;100.00
72423;BME280;71399;54.146;38.734;2023-12-14T11:23:35;99744.66;;;-9.19;100.00
72423;BME280;71399;54.146;38.734;2023-12-14T11:26:08;99734.03;;;-9.26;100.00
72423;BME280;71399;54.146;38.734;2023-12-14T11:28:37;99748.03;;;-9.19;100.00
72423;BME280;71399;54.146;38.734;2023-12-14T11:31:04;99733.34;;;-9.15;100.00
72423;BME280;71399;54.146;38.734;2023-12-14T11:33:33;99731.09;;;-9.20;100.00
72423;BME280;71399;54.146;38.734;2023-12-14T11:36:02;99725.78;;;-9.17;100.00
72423;BME280;71399;54.146;38.734;2023-12-14T11:38:32;99723.53;;;-9.21;100.00
72423;BME280;71399;54.146;38.734;2023-12-14T11:41:01;99732.09;;;-9.22;100.00
72423;BME280;71399;54.146;38.734;2023-12-14T11:43:28;99728.44;;;-9.18;100.00
72423;BME280;71399;54.146;38.734;2023-12-14T11:45:55;99711.75;;;-9.24;100.00
72423;BME280;71399;54.146;38.734;2023-12-14T11:48:24;99714.13;;;-9.21;100.00
72423;BME280;71399;54.146;38.734;2023-12-14T11:50:51;99717.28;;;-9.30;100.00
72423;BME280;71399;54.146;38.734;2023-12-14T11:53:18;99712.53;;;-9.36;100.00
72423;BME280;71399;54.146;38.734;2023-12-14T11:55:44;99689.22;;;-9.44;100.00
72423;BME280;71399;54.146;38.734;2023-12-14T11:58:12;99698.78;;;-9.34;100.00
72423;BME280;71399;54.146;38.734;2023-12-14T12:00:42;99706.53;;;-9.35;100.00
72423;BME280;71399;54.146;38.734;2023-12-14T12:03:12;99703.44;;;-9.40;100.00
72423;BME280;71399;54.146;38.734;2023-12-14T12:05:50;99697.16;;;-9.49;100.00
72423;BME280;71399;54.146;38.734;2023-12-14T12:08:19;99710.28;;;-9.41;100.00
72423;BME280;71399;54.146;38.734;2023-12-14T12:10:47;99701.00;;;-9.42;100.00
72423;BME280;71399;54.146;38.734;2023-12-14T12:13:16;99718.13;;;-9.44;100.00
72423;BME280;71399;54.146;38.734;2023-12-14T12:15:43;99715.34;;;-9.54;100.00
72423;BME280;71399;54.146;38.734;2023-12-14T12:18:11;99724.78;;;-9.56;100.00
72423;BME280;71399;54.146;38.734;2023-12-14T12:20:38;99725.81;;;-9.58;100.00
72423;BME280;71399;54.146;38.734;2023-12-14T12:23:05;99727.75;;;-9.62;100.00
72423;BME280;71399;54.146;38.734;2023-12-14T12:25:32;99722.25;;;-9.56;100.00
72423;BME280;71399;54.146;38.734;2023-12-14T12:28:00;99722.34;;;-9.57;100.00
72423;BME280;71399;54.146;38.734;2023-12-14T12:30:28;99715.88;;;-9.63;100.00
72423;BME280;71399;54.146;38.734;2023-12-14T12:32:55;99710.88;;;-9.64;100.00
72423;BME280;71399;54.146;38.734;2023-12-14T12:35:23;99706.06;;;-9.69;100.00